sensor_id;sensor_type;location;lat;lon;timestamp;P1;durP1;ratioP1;P2;durP2;ratioP2
22417;SDS011;11376;50.932;4.442;2022-12-15T00:00:51;49.43;;;22.87;;
22417;SDS011;11376;50.932;4.442;2022-12-15T00:03:36;55.90;;;22.07;;
22417;SDS011;11376;50.932;4.442;2022-12-15T00:06:20;53.07;;;21.73;;
22417;SDS011;11376;50.932;4.442;2022-12-15T00:09:04;52.00;;;21.13;;
22417;SDS011;11376;50.932;4.442;2022-12-15T00:11:51;51.30;;;21.43;;
22417;SDS011;11376;50.932;4.442;2022-12-15T00:14:35;57.40;;;22.10;;
22417;SDS011;11376;50.932;4.442;2022-12-15T00:17:19;52.17;;;21.30;;
22417;SDS011;11376;50.932;4.442;2022-12-15T00:20:03;53.10;;;22.57;;
22417;SDS011;11376;50.932;4.442;2022-12-15T00:22:48;51.87;;;21.57;;
22417;SDS011;11376;50.932;4.442;2022-12-15T00:25:32;50.73;;;22.67;;
22417;SDS011;11376;50.932;4.442;2022-12-15T00:28:16;52.33;;;22.70;;
22417;SDS011;11376;50.932;4.442;2022-12-15T00:31:00;55.60;;;22.57;;
22417;SDS011;11376;50.932;4.442;2022-12-15T00:33:44;52.97;;;20.50;;
22417;SDS011;11376;50.932;4.442;2022-12-15T00:36:28;52.10;;;22.00;;
22417;SDS011;11376;50.932;4.442;2022-12-15T00:39:12;60.00;;;22.87;;
22417;SDS011;11376;50.932;4.442;2022-12-15T00:41:38;54.53;;;23.33;;
22417;SDS011;11376;50.932;4.442;2022-12-15T00:44:04;54.57;;;23.57;;
22417;SDS011;11376;50.932;4.442;2022-12-15T00:46:32;54.90;;;21.80;;
22417;SDS011;11376;50.932;4.442;2022-12-15T00:49:16;54.23;;;22.17;;
22417;SDS011;11376;50.932;4.442;2022-12-15T00:52:01;53.40;;;22.60;;
22417;SDS011;11376;50.932;4.442;2022-12-15T00:54:45;52.63;;;22.00;;
22417;SDS011;11376;50.932;4.442;2022-12-15T00:57:29;60.20;;;22.47;;
22417;SDS011;11376;50.932;4.442;2022-12-15T01:00:13;53.47;;;21.60;;
22417;SDS011;11376;50.932;4.442;2022-12-15T01:02:57;52.90;;;22.27;;
22417;SDS011;11376;50.932;4.442;2022-12-15T01:05:41;67.90;;;23.40;;
22417;SDS011;11376;50.932;4.442;2022-12-15T01:08:26;52.73;;;22.57;;
22417;SDS011;11376;50.932;4.442;2022-12-15T01:11:11;61.30;;;22.97;;
22417;SDS011;11376;50.932;4.442;2022-12-15T01:13:55;55.67;;;22.60;;
22417;SDS011;11376;50.932;4.442;2022-12-15T01:16:40;55.70;;;22.60;;
22417;SDS011;11376;50.932;4.442;2022-12-15T01:19:24;53.30;;;21.47;;
22417;SDS011;11376;50.932;4.442;2022-12-15T01:22:08;52.20;;;21.17;;
22417;SDS011;11376;50.932;4.442;2022-12-15T01:24:34;59.50;;;23.00;;
22417;SDS011;11376;50.932;4.442;2022-12-15T01:26:59;54.20;;;21.53;;
22417;SDS011;11376;50.932;4.442;2022-12-15T01:29:25;54.47;;;22.10;;
22417;SDS011;11376;50.932;4.442;2022-12-15T01:31:51;50.73;;;21.40;;
22417;SDS011;11376;50.932;4.442;2022-12-15T01:34:17;52.07;;;21.17;;
22417;SDS011;11376;50.932;4.442;2022-12-15T01:36:44;56.67;;;22.53;;
22417;SDS011;11376;50.932;4.442;2022-12-15T01:39:10;52.43;;;21.07;;
22417;SDS011;11376;50.932;4.442;2022-12-15T01:41:36;55.13;;;22.30;;
22417;SDS011;11376;50.932;4.442;2022-12-15T01:44:18;56.13;;;22.70;;
22417;SDS011;11376;50.932;4.442;2022-12-15T01:46:50;52.30;;;21.47;;
22417;SDS011;11376;50.932;4.442;2022-12-15T01:49:28;47.40;;;21.37;;
22417;SDS011;11376;50.932;4.442;2022-12-15T01:51:57;54.93;;;23.03;;
22417;SDS011;11376;50.932;4.442;2022-12-15T01:54:25;49.13;;;22.03;;
22417;SDS011;11376;50.932;4.442;2022-12-15T01:57:02;49.90;;;22.03;;
22417;SDS011;11376;50.932;4.442;2022-12-15T01:59:34;55.53;;;21.57;;
22417;SDS011;11376;50.932;4.442;2022-12-15T02:02:03;57.23;;;22.30;;
22417;SDS011;11376;50.932;4.442;2022-12-15T02:04:29;52.50;;;21.90;;
22417;SDS011;11376;50.932;4.442;2022-12-15T02:06:56;56.17;;;21.83;;
22417;SDS011;11376;50.932;4.442;2022-12-15T02:09:22;56.27;;;22.13;;
22417;SDS011;11376;50.932;4.442;2022-12-15T02:14:27;54.87;;;22.70;;
22417;SDS011;11376;50.932;4.442;2022-12-15T02:17:05;54.23;;;20.93;;
22417;SDS011;11376;50.932;4.442;2022-12-15T02:22:53;51.83;;;20.93;;
22417;SDS011;11376;50.932;4.442;2022-12-15T02:28:03;53.40;;;21.80;;
22417;SDS011;11376;50.932;4.442;2022-12-15T02:30:37;50.70;;;20.77;;
22417;SDS011;11376;50.932;4.442;2022-12-15T02:33:59;57.83;;;21.67;;
22417;SDS011;11376;50.932;4.442;2022-12-15T02:36:34;60.37;;;21.40;;
22417;SDS011;11376;50.932;4.442;2022-12-15T02:39:03;51.17;;;21.43;;
22417;SDS011;11376;50.932;4.442;2022-12-15T02:41:34;50.70;;;20.97;;
22417;SDS011;11376;50.932;4.442;2022-12-15T02:44:01;51.23;;;21.10;;
22417;SDS011;11376;50.932;4.442;2022-12-15T02:52:10;53.67;;;20.83;;
22417;SDS011;11376;50.932;4.442;2022-12-15T02:57:36;54.93;;;20.67;;
22417;SDS011;11376;50.932;4.442;2022-12-15T03:00:18;52.27;;;21.67;;
22417;SDS011;11376;50.932;4.442;2022-12-15T03:02:46;45.33;;;21.13;;
22417;SDS011;11376;50.932;4.442;2022-12-15T03:05:15;53.63;;;21.17;;
22417;SDS011;11376;50.932;4.442;2022-12-15T03:07:41;52.27;;;21.13;;
22417;SDS011;11376;50.932;4.442;2022-12-15T03:10:07;53.63;;;21.00;;
22417;SDS011;11376;50.932;4.442;2022-12-15T03:12:34;52.20;;;21.47;;
22417;SDS011;11376;50.932;4.442;2022-12-15T03:14:59;52.87;;;21.43;;
22417;SDS011;11376;50.932;4.442;2022-12-15T03:17:25;52.13;;;21.80;;
22417;SDS011;11376;50.932;4.442;2022-12-15T03:19:51;52.50;;;21.50;;
22417;SDS011;11376;50.932;4.442;2022-12-15T03:22:16;51.23;;;21.27;;
22417;SDS011;11376;50.932;4.442;2022-12-15T03:24:42;51.27;;;22.00;;
22417;SDS011;11376;50.932;4.442;2022-12-15T03:27:07;57.20;;;22.03;;
22417;SDS011;11376;50.932;4.442;2022-12-15T03:29:33;43.40;;;20.70;;
22417;SDS011;11376;50.932;4.442;2022-12-15T03:31:59;58.10;;;22.07;;
22417;SDS011;11376;50.932;4.442;2022-12-15T03:34:24;49.27;;;20.10;;
22417;SDS011;11376;50.932;4.442;2022-12-15T03:36:50;45.70;;;19.80;;
22417;SDS011;11376;50.932;4.442;2022-12-15T03:39:15;56.83;;;21.00;;
22417;SDS011;11376;50.932;4.442;2022-12-15T03:41:41;52.60;;;21.10;;
22417;SDS011;11376;50.932;4.442;2022-12-15T03:44:07;52.80;;;20.77;;
22417;SDS011;11376;50.932;4.442;2022-12-15T03:46:35;53.30;;;19.83;;
22417;SDS011;11376;50.932;4.442;2022-12-15T03:49:01;52.53;;;19.47;;
22417;SDS011;11376;50.932;4.442;2022-12-15T03:51:26;54.00;;;19.63;;
22417;SDS011;11376;50.932;4.442;2022-12-15T03:53:52;48.87;;;20.93;;
22417;SDS011;11376;50.932;4.442;2022-12-15T03:56:18;47.73;;;19.43;;
22417;SDS011;11376;50.932;4.442;2022-12-15T03:58:44;45.80;;;19.77;;
22417;SDS011;11376;50.932;4.442;2022-12-15T04:01:11;52.33;;;19.83;;
22417;SDS011;11376;50.932;4.442;2022-12-15T04:03:43;45.50;;;19.13;;
22417;SDS011;11376;50.932;4.442;2022-12-15T04:06:11;46.33;;;20.03;;
22417;SDS011;11376;50.932;4.442;2022-12-15T04:08:37;50.50;;;20.33;;
22417;SDS011;11376;50.932;4.442;2022-12-15T04:11:03;50.50;;;18.70;;
22417;SDS011;11376;50.932;4.442;2022-12-15T04:13:29;47.83;;;19.87;;
22417;SDS011;11376;50.932;4.442;2022-12-15T04:15:55;46.37;;;19.30;;
22417;SDS011;11376;50.932;4.442;2022-12-15T04:18:21;47.23;;;18.73;;
22417;SDS011;11376;50.932;4.442;2022-12-15T04:20:46;44.83;;;17.53;;
22417;SDS011;11376;50.932;4.442;2022-12-15T04:23:12;45.13;;;18.80;;
22417;SDS011;11376;50.932;4.442;2022-12-15T04:25:37;43.53;;;18.40;;
22417;SDS011;11376;50.932;4.442;2022-12-15T04:28:22;42.73;;;17.80;;
22417;SDS011;11376;50.932;4.442;2022-12-15T04:31:07;42.60;;;17.73;;
22417;SDS011;11376;50.932;4.442;2022-12-15T04:33:52;43.43;;;18.23;;
22417;SDS011;11376;50.932;4.442;2022-12-15T04:36:42;41.83;;;17.60;;
22417;SDS011;11376;50.932;4.442;2022-12-15T04:39:28;42.80;;;18.37;;
22417;SDS011;11376;50.932;4.442;2022-12-15T04:42:13;47.20;;;18.97;;
22417;SDS011;11376;50.932;4.442;2022-12-15T04:44:59;46.50;;;18.03;;
22417;SDS011;11376;50.932;4.442;2022-12-15T04:47:46;44.97;;;17.97;;
22417;SDS011;11376;50.932;4.442;2022-12-15T04:50:30;43.80;;;18.53;;
22417;SDS011;11376;50.932;4.442;2022-12-15T04:53:15;41.77;;;17.97;;
22417;SDS011;11376;50.932;4.442;2022-12-15T04:56:00;46.60;;;18.63;;
22417;SDS011;11376;50.932;4.442;2022-12-15T04:58:45;39.67;;;16.67;;
22417;SDS011;11376;50.932;4.442;2022-12-15T05:01:31;46.20;;;17.73;;
22417;SDS011;11376;50.932;4.442;2022-12-15T05:04:16;42.60;;;17.67;;
22417;SDS011;11376;50.932;4.442;2022-12-15T05:07:00;46.50;;;18.50;;
22417;SDS011;11376;50.932;4.442;2022-12-15T05:09:44;45.53;;;17.57;;
22417;SDS011;11376;50.932;4.442;2022-12-15T05:12:28;39.90;;;16.37;;
22417;SDS011;11376;50.932;4.442;2022-12-15T05:15:12;45.87;;;16.87;;
22417;SDS011;11376;50.932;4.442;2022-12-15T05:17:56;42.60;;;17.47;;
22417;SDS011;11376;50.932;4.442;2022-12-15T05:20:41;51.57;;;18.40;;
22417;SDS011;11376;50.932;4.442;2022-12-15T05:23:25;47.83;;;19.37;;
22417;SDS011;11376;50.932;4.442;2022-12-15T05:26:09;43.70;;;20.13;;
22417;SDS011;11376;50.932;4.442;2022-12-15T05:28:53;51.77;;;18.37;;
22417;SDS011;11376;50.932;4.442;2022-12-15T05:31:37;41.50;;;18.30;;
22417;SDS011;11376;50.932;4.442;2022-12-15T05:36:52;49.13;;;19.53;;
22417;SDS011;11376;50.932;4.442;2022-12-15T05:39:19;45.80;;;18.87;;
22417;SDS011;11376;50.932;4.442;2022-12-15T05:41:48;43.90;;;17.67;;
22417;SDS011;11376;50.932;4.442;2022-12-15T05:44:15;43.63;;;18.13;;
22417;SDS011;11376;50.932;4.442;2022-12-15T05:46:41;42.67;;;17.20;;
22417;SDS011;11376;50.932;4.442;2022-12-15T05:49:08;49.00;;;18.37;;
22417;SDS011;11376;50.932;4.442;2022-12-15T05:51:36;42.70;;;18.57;;
22417;SDS011;11376;50.932;4.442;2022-12-15T05:54:04;40.53;;;17.83;;
22417;SDS011;11376;50.932;4.442;2022-12-15T05:56:30;51.40;;;19.07;;
22417;SDS011;11376;50.932;4.442;2022-12-15T05:58:56;46.30;;;19.00;;
22417;SDS011;11376;50.932;4.442;2022-12-15T06:01:22;42.57;;;18.60;;
22417;SDS011;11376;50.932;4.442;2022-12-15T06:03:51;50.00;;;19.10;;
22417;SDS011;11376;50.932;4.442;2022-12-15T06:06:17;45.70;;;20.30;;
22417;SDS011;11376;50.932;4.442;2022-12-15T06:08:54;46.53;;;19.03;;
22417;SDS011;11376;50.932;4.442;2022-12-15T06:11:20;47.60;;;19.73;;
22417;SDS011;11376;50.932;4.442;2022-12-15T06:13:46;48.37;;;19.30;;
22417;SDS011;11376;50.932;4.442;2022-12-15T06:16:13;46.37;;;18.90;;
22417;SDS011;11376;50.932;4.442;2022-12-15T06:18:42;52.00;;;18.90;;
22417;SDS011;11376;50.932;4.442;2022-12-15T06:21:10;44.30;;;19.27;;
22417;SDS011;11376;50.932;4.442;2022-12-15T06:23:37;44.20;;;17.93;;
22417;SDS011;11376;50.932;4.442;2022-12-15T06:26:38;46.73;;;18.37;;
22417;SDS011;11376;50.932;4.442;2022-12-15T06:29:00;49.97;;;20.03;;
22417;SDS011;11376;50.932;4.442;2022-12-15T06:31:26;47.60;;;19.17;;
22417;SDS011;11376;50.932;4.442;2022-12-15T06:33:53;46.50;;;18.63;;
22417;SDS011;11376;50.932;4.442;2022-12-15T06:36:19;49.70;;;18.57;;
22417;SDS011;11376;50.932;4.442;2022-12-15T06:38:48;51.17;;;19.37;;
22417;SDS011;11376;50.932;4.442;2022-12-15T06:41:14;41.17;;;18.33;;
22417;SDS011;11376;50.932;4.442;2022-12-15T06:43:41;43.50;;;18.83;;
22417;SDS011;11376;50.932;4.442;2022-12-15T06:46:08;49.73;;;19.37;;
22417;SDS011;11376;50.932;4.442;2022-12-15T06:48:34;45.73;;;18.00;;
22417;SDS011;11376;50.932;4.442;2022-12-15T06:51:04;42.27;;;17.33;;
22417;SDS011;11376;50.932;4.442;2022-12-15T06:53:34;43.27;;;17.77;;
22417;SDS011;11376;50.932;4.442;2022-12-15T06:56:02;43.27;;;17.67;;
22417;SDS011;11376;50.932;4.442;2022-12-15T06:58:29;46.40;;;17.73;;
22417;SDS011;11376;50.932;4.442;2022-12-15T07:00:55;45.83;;;18.47;;
22417;SDS011;11376;50.932;4.442;2022-12-15T07:03:21;45.47;;;18.03;;
22417;SDS011;11376;50.932;4.442;2022-12-15T07:05:47;48.17;;;18.57;;
22417;SDS011;11376;50.932;4.442;2022-12-15T07:08:13;45.07;;;18.33;;
22417;SDS011;11376;50.932;4.442;2022-12-15T07:10:41;46.63;;;18.67;;
22417;SDS011;11376;50.932;4.442;2022-12-15T07:13:11;46.97;;;18.53;;
22417;SDS011;11376;50.932;4.442;2022-12-15T07:15:37;48.53;;;17.90;;
22417;SDS011;11376;50.932;4.442;2022-12-15T07:18:04;45.97;;;19.00;;
22417;SDS011;11376;50.932;4.442;2022-12-15T07:20:30;45.83;;;18.73;;
22417;SDS011;11376;50.932;4.442;2022-12-15T07:22:55;45.17;;;18.93;;
22417;SDS011;11376;50.932;4.442;2022-12-15T07:25:21;42.97;;;18.40;;
22417;SDS011;11376;50.932;4.442;2022-12-15T07:27:46;49.00;;;19.20;;
22417;SDS011;11376;50.932;4.442;2022-12-15T07:30:13;45.07;;;18.17;;
22417;SDS011;11376;50.932;4.442;2022-12-15T07:32:40;50.70;;;19.13;;
22417;SDS011;11376;50.932;4.442;2022-12-15T07:35:06;47.67;;;19.40;;
22417;SDS011;11376;50.932;4.442;2022-12-15T07:37:32;47.17;;;18.43;;
22417;SDS011;11376;50.932;4.442;2022-12-15T07:39:59;47.97;;;18.87;;
22417;SDS011;11376;50.932;4.442;2022-12-15T07:42:27;49.63;;;18.97;;
22417;SDS011;11376;50.932;4.442;2022-12-15T07:44:53;48.30;;;18.70;;
22417;SDS011;11376;50.932;4.442;2022-12-15T07:47:19;46.33;;;18.47;;
22417;SDS011;11376;50.932;4.442;2022-12-15T07:49:44;49.60;;;19.17;;
22417;SDS011;11376;50.932;4.442;2022-12-15T07:52:10;50.03;;;19.80;;
22417;SDS011;11376;50.932;4.442;2022-12-15T07:54:38;57.00;;;19.40;;
22417;SDS011;11376;50.932;4.442;2022-12-15T07:57:04;55.10;;;19.87;;
22417;SDS011;11376;50.932;4.442;2022-12-15T07:59:31;46.97;;;19.90;;
22417;SDS011;11376;50.932;4.442;2022-12-15T08:02:00;47.03;;;20.53;;
22417;SDS011;11376;50.932;4.442;2022-12-15T08:04:28;55.40;;;21.17;;
22417;SDS011;11376;50.932;4.442;2022-12-15T08:06:54;64.80;;;22.53;;
22417;SDS011;11376;50.932;4.442;2022-12-15T08:09:20;52.33;;;20.40;;
22417;SDS011;11376;50.932;4.442;2022-12-15T08:11:46;55.07;;;19.73;;
22417;SDS011;11376;50.932;4.442;2022-12-15T08:14:11;50.10;;;20.20;;
22417;SDS011;11376;50.932;4.442;2022-12-15T08:16:37;49.33;;;20.13;;
22417;SDS011;11376;50.932;4.442;2022-12-15T08:19:04;52.67;;;20.23;;
22417;SDS011;11376;50.932;4.442;2022-12-15T08:21:30;47.80;;;19.47;;
22417;SDS011;11376;50.932;4.442;2022-12-15T08:23:57;53.37;;;20.50;;
22417;SDS011;11376;50.932;4.442;2022-12-15T08:26:24;48.83;;;19.50;;
22417;SDS011;11376;50.932;4.442;2022-12-15T08:28:50;49.57;;;20.33;;
22417;SDS011;11376;50.932;4.442;2022-12-15T08:31:17;55.47;;;19.67;;
22417;SDS011;11376;50.932;4.442;2022-12-15T08:33:45;52.07;;;20.20;;
22417;SDS011;11376;50.932;4.442;2022-12-15T08:36:12;50.63;;;19.07;;
22417;SDS011;11376;50.932;4.442;2022-12-15T08:38:39;51.93;;;19.90;;
22417;SDS011;11376;50.932;4.442;2022-12-15T08:41:13;48.23;;;19.67;;
22417;SDS011;11376;50.932;4.442;2022-12-15T08:43:41;44.90;;;19.40;;
22417;SDS011;11376;50.932;4.442;2022-12-15T08:46:07;44.00;;;18.37;;
22417;SDS011;11376;50.932;4.442;2022-12-15T08:48:33;48.80;;;20.03;;
22417;SDS011;11376;50.932;4.442;2022-12-15T08:50:59;55.83;;;22.33;;
22417;SDS011;11376;50.932;4.442;2022-12-15T08:53:25;59.53;;;22.60;;
22417;SDS011;11376;50.932;4.442;2022-12-15T08:55:51;50.40;;;21.87;;
22417;SDS011;11376;50.932;4.442;2022-12-15T08:58:17;61.20;;;23.97;;
22417;SDS011;11376;50.932;4.442;2022-12-15T09:00:43;63.30;;;23.80;;
22417;SDS011;11376;50.932;4.442;2022-12-15T09:03:08;50.50;;;20.97;;
22417;SDS011;11376;50.932;4.442;2022-12-15T09:05:35;45.43;;;21.17;;
22417;SDS011;11376;50.932;4.442;2022-12-15T09:08:01;48.27;;;19.80;;
22417;SDS011;11376;50.932;4.442;2022-12-15T09:10:27;44.37;;;19.47;;
22417;SDS011;11376;50.932;4.442;2022-12-15T09:12:53;48.97;;;19.33;;
22417;SDS011;11376;50.932;4.442;2022-12-15T09:15:18;47.07;;;20.57;;
22417;SDS011;11376;50.932;4.442;2022-12-15T09:17:44;50.33;;;20.63;;
22417;SDS011;11376;50.932;4.442;2022-12-15T09:20:11;50.90;;;19.93;;
22417;SDS011;11376;50.932;4.442;2022-12-15T09:22:40;46.60;;;19.13;;
22417;SDS011;11376;50.932;4.442;2022-12-15T09:25:06;43.90;;;18.33;;
22417;SDS011;11376;50.932;4.442;2022-12-15T09:27:32;48.03;;;19.53;;
22417;SDS011;11376;50.932;4.442;2022-12-15T09:29:59;50.33;;;18.60;;
22417;SDS011;11376;50.932;4.442;2022-12-15T09:32:25;43.33;;;19.33;;
22417;SDS011;11376;50.932;4.442;2022-12-15T09:34:50;46.27;;;18.07;;
22417;SDS011;11376;50.932;4.442;2022-12-15T09:37:16;43.60;;;18.10;;
22417;SDS011;11376;50.932;4.442;2022-12-15T09:39:43;43.87;;;18.53;;
22417;SDS011;11376;50.932;4.442;2022-12-15T09:42:20;45.17;;;18.20;;
22417;SDS011;11376;50.932;4.442;2022-12-15T09:44:46;44.83;;;18.77;;
22417;SDS011;11376;50.932;4.442;2022-12-15T09:47:28;45.67;;;18.77;;
22417;SDS011;11376;50.932;4.442;2022-12-15T09:50:04;50.57;;;18.83;;
22417;SDS011;11376;50.932;4.442;2022-12-15T09:55:07;44.77;;;18.53;;
22417;SDS011;11376;50.932;4.442;2022-12-15T09:57:58;46.10;;;19.17;;
22417;SDS011;11376;50.932;4.442;2022-12-15T10:00:30;44.23;;;18.73;;
22417;SDS011;11376;50.932;4.442;2022-12-15T10:03:16;43.50;;;19.00;;
22417;SDS011;11376;50.932;4.442;2022-12-15T10:08:37;40.40;;;18.50;;
22417;SDS011;11376;50.932;4.442;2022-12-15T10:14:06;45.83;;;19.37;;
22417;SDS011;11376;50.932;4.442;2022-12-15T10:16:49;47.27;;;20.07;;
22417;SDS011;11376;50.932;4.442;2022-12-15T10:19:23;43.27;;;20.00;;
22417;SDS011;11376;50.932;4.442;2022-12-15T10:22:13;44.67;;;20.67;;
22417;SDS011;11376;50.932;4.442;2022-12-15T10:24:45;43.20;;;20.00;;
22417;SDS011;11376;50.932;4.442;2022-12-15T10:27:22;41.33;;;19.90;;
22417;SDS011;11376;50.932;4.442;2022-12-15T10:30:01;37.90;;;21.30;;
22417;SDS011;11376;50.932;4.442;2022-12-15T10:32:32;43.37;;;22.53;;
22417;SDS011;11376;50.932;4.442;2022-12-15T10:35:12;45.75;;;22.10;;
22417;SDS011;11376;50.932;4.442;2022-12-15T10:37:53;45.08;;;23.33;;
22417;SDS011;11376;50.932;4.442;2022-12-15T10:43:13;41.78;;;22.52;;
22417;SDS011;11376;50.932;4.442;2022-12-15T10:45:47;40.58;;;22.17;;
22417;SDS011;11376;50.932;4.442;2022-12-15T10:48:17;52.22;;;23.23;;
22417;SDS011;11376;50.932;4.442;2022-12-15T10:50:44;44.03;;;21.70;;
22417;SDS011;11376;50.932;4.442;2022-12-15T10:53:30;49.00;;;22.92;;
22417;SDS011;11376;50.932;4.442;2022-12-15T10:56:03;49.88;;;21.25;;
22417;SDS011;11376;50.932;4.442;2022-12-15T10:58:34;49.33;;;23.60;;
22417;SDS011;11376;50.932;4.442;2022-12-15T11:01:14;47.90;;;22.90;;
22417;SDS011;11376;50.932;4.442;2022-12-15T11:03:42;41.40;;;21.58;;
22417;SDS011;11376;50.932;4.442;2022-12-15T11:06:13;43.55;;;22.27;;
22417;SDS011;11376;50.932;4.442;2022-12-15T11:08:41;52.15;;;20.45;;
22417;SDS011;11376;50.932;4.442;2022-12-15T11:11:23;38.53;;;20.95;;
22417;SDS011;11376;50.932;4.442;2022-12-15T11:14:19;50.72;;;21.90;;
22417;SDS011;11376;50.932;4.442;2022-12-15T11:16:56;44.58;;;25.27;;
22417;SDS011;11376;50.932;4.442;2022-12-15T11:22:07;47.30;;;22.20;;
22417;SDS011;11376;50.932;4.442;2022-12-15T11:24:44;42.65;;;23.42;;
22417;SDS011;11376;50.932;4.442;2022-12-15T11:32:34;39.30;;;22.25;;
22417;SDS011;11376;50.932;4.442;2022-12-15T11:35:04;40.65;;;22.30;;
22417;SDS011;11376;50.932;4.442;2022-12-15T11:37:55;38.55;;;22.05;;
22417;SDS011;11376;50.932;4.442;2022-12-15T11:51:39;39.05;;;21.92;;
22417;SDS011;11376;50.932;4.442;2022-12-15T11:54:18;37.75;;;21.25;;
22417;SDS011;11376;50.932;4.442;2022-12-15T12:10:45;42.78;;;21.83;;
22417;SDS011;11376;50.932;4.442;2022-12-15T12:13:39;39.28;;;21.35;;
22417;SDS011;11376;50.932;4.442;2022-12-15T12:18:46;36.85;;;20.48;;
22417;SDS011;11376;50.932;4.442;2022-12-15T12:21:25;42.33;;;22.48;;
22417;SDS011;11376;50.932;4.442;2022-12-15T12:23:58;47.30;;;21.60;;
22417;SDS011;11376;50.932;4.442;2022-12-15T12:26:29;39.60;;;22.10;;
22417;SDS011;11376;50.932;4.442;2022-12-15T12:34:13;40.47;;;22.98;;
22417;SDS011;11376;50.932;4.442;2022-12-15T12:36:43;39.90;;;22.95;;
22417;SDS011;11376;50.932;4.442;2022-12-15T12:39:14;41.55;;;22.40;;
22417;SDS011;11376;50.932;4.442;2022-12-15T12:41:52;43.20;;;22.25;;
22417;SDS011;11376;50.932;4.442;2022-12-15T12:44:28;39.55;;;21.38;;
22417;SDS011;11376;50.932;4.442;2022-12-15T12:46:56;37.60;;;21.10;;
22417;SDS011;11376;50.932;4.442;2022-12-15T12:51:57;42.38;;;20.85;;
22417;SDS011;11376;50.932;4.442;2022-12-15T12:57:01;39.90;;;22.52;;
22417;SDS011;11376;50.932;4.442;2022-12-15T12:59:47;43.05;;;23.83;;
22417;SDS011;11376;50.932;4.442;2022-12-15T13:05:21;49.22;;;23.70;;
22417;SDS011;11376;50.932;4.442;2022-12-15T13:10:35;44.00;;;23.63;;
22417;SDS011;11376;50.932;4.442;2022-12-15T13:27:12;41.08;;;23.10;;
22417;SDS011;11376;50.932;4.442;2022-12-15T13:35:00;33.50;;;21.27;;
22417;SDS011;11376;50.932;4.442;2022-12-15T13:37:56;33.45;;;20.42;;
22417;SDS011;11376;50.932;4.442;2022-12-15T13:48:04;27.73;;;18.30;;
22417;SDS011;11376;50.932;4.442;2022-12-15T13:50:39;32.42;;;19.20;;
22417;SDS011;11376;50.932;4.442;2022-12-15T13:53:14;29.35;;;18.67;;
22417;SDS011;11376;50.932;4.442;2022-12-15T13:55:51;28.33;;;18.05;;
22417;SDS011;11376;50.932;4.442;2022-12-15T13:58:23;28.65;;;18.70;;
22417;SDS011;11376;50.932;4.442;2022-12-15T14:00:50;28.27;;;18.10;;
22417;SDS011;11376;50.932;4.442;2022-12-15T14:03:18;27.23;;;17.48;;
22417;SDS011;11376;50.932;4.442;2022-12-15T14:05:54;27.45;;;18.08;;
22417;SDS011;11376;50.932;4.442;2022-12-15T14:08:22;30.33;;;18.00;;
22417;SDS011;11376;50.932;4.442;2022-12-15T14:10:51;29.15;;;18.02;;
22417;SDS011;11376;50.932;4.442;2022-12-15T14:13:19;32.20;;;18.80;;
22417;SDS011;11376;50.932;4.442;2022-12-15T14:15:50;32.78;;;19.90;;
22417;SDS011;11376;50.932;4.442;2022-12-15T14:20:56;35.63;;;19.90;;
22417;SDS011;11376;50.932;4.442;2022-12-15T14:23:29;34.60;;;18.77;;
22417;SDS011;11376;50.932;4.442;2022-12-15T14:26:05;31.05;;;18.65;;
22417;SDS011;11376;50.932;4.442;2022-12-15T14:28:36;29.83;;;18.57;;
22417;SDS011;11376;50.932;4.442;2022-12-15T14:31:04;33.77;;;18.10;;
22417;SDS011;11376;50.932;4.442;2022-12-15T14:33:40;28.10;;;16.60;;
22417;SDS011;11376;50.932;4.442;2022-12-15T14:36:09;29.17;;;16.67;;
22417;SDS011;11376;50.932;4.442;2022-12-15T14:38:42;33.50;;;16.53;;
22417;SDS011;11376;50.932;4.442;2022-12-15T14:41:22;27.97;;;15.80;;
22417;SDS011;11376;50.932;4.442;2022-12-15T14:43:49;27.43;;;15.20;;
22417;SDS011;11376;50.932;4.442;2022-12-15T14:46:21;26.50;;;14.60;;
22417;SDS011;11376;50.932;4.442;2022-12-15T14:48:56;27.90;;;14.87;;
22417;SDS011;11376;50.932;4.442;2022-12-15T14:51:25;28.87;;;15.57;;
22417;SDS011;11376;50.932;4.442;2022-12-15T14:53:52;31.80;;;15.47;;
22417;SDS011;11376;50.932;4.442;2022-12-15T14:59:14;32.97;;;16.07;;
22417;SDS011;11376;50.932;4.442;2022-12-15T15:01:50;29.83;;;16.00;;
22417;SDS011;11376;50.932;4.442;2022-12-15T15:04:30;30.23;;;16.23;;
22417;SDS011;11376;50.932;4.442;2022-12-15T15:07:01;32.30;;;16.27;;
22417;SDS011;11376;50.932;4.442;2022-12-15T15:09:29;37.73;;;17.07;;
22417;SDS011;11376;50.932;4.442;2022-12-15T15:14:24;31.03;;;15.90;;
22417;SDS011;11376;50.932;4.442;2022-12-15T15:17:35;29.93;;;15.27;;
22417;SDS011;11376;50.932;4.442;2022-12-15T15:19:56;34.07;;;16.03;;
22417;SDS011;11376;50.932;4.442;2022-12-15T15:24:52;37.20;;;16.57;;
22417;SDS011;11376;50.932;4.442;2022-12-15T15:27:25;36.63;;;15.87;;
22417;SDS011;11376;50.932;4.442;2022-12-15T15:35:19;31.07;;;15.47;;
22417;SDS011;11376;50.932;4.442;2022-12-15T15:37:45;39.93;;;16.30;;
22417;SDS011;11376;50.932;4.442;2022-12-15T15:40:12;32.83;;;16.20;;
22417;SDS011;11376;50.932;4.442;2022-12-15T15:42:40;36.17;;;16.33;;
22417;SDS011;11376;50.932;4.442;2022-12-15T15:45:09;35.20;;;16.03;;
22417;SDS011;11376;50.932;4.442;2022-12-15T15:47:37;39.60;;;17.30;;
22417;SDS011;11376;50.932;4.442;2022-12-15T15:50:04;43.47;;;16.83;;
22417;SDS011;11376;50.932;4.442;2022-12-15T15:52:30;38.57;;;17.73;;
22417;SDS011;11376;50.932;4.442;2022-12-15T15:54:56;39.37;;;18.03;;
22417;SDS011;11376;50.932;4.442;2022-12-15T15:57:22;34.50;;;17.53;;
22417;SDS011;11376;50.932;4.442;2022-12-15T15:59:48;34.40;;;17.17;;
22417;SDS011;11376;50.932;4.442;2022-12-15T16:02:14;39.70;;;17.70;;
22417;SDS011;11376;50.932;4.442;2022-12-15T16:04:40;35.93;;;17.30;;
22417;SDS011;11376;50.932;4.442;2022-12-15T16:07:12;41.60;;;19.43;;
22417;SDS011;11376;50.932;4.442;2022-12-15T16:09:43;46.87;;;21.37;;
22417;SDS011;11376;50.932;4.442;2022-12-15T16:14:47;45.03;;;19.90;;
22417;SDS011;11376;50.932;4.442;2022-12-15T16:17:12;46.80;;;20.43;;
22417;SDS011;11376;50.932;4.442;2022-12-15T16:19:41;38.43;;;19.17;;
22417;SDS011;11376;50.932;4.442;2022-12-15T16:22:08;39.73;;;20.00;;
22417;SDS011;11376;50.932;4.442;2022-12-15T16:24:44;39.70;;;20.07;;
22417;SDS011;11376;50.932;4.442;2022-12-15T16:27:10;45.87;;;20.13;;
22417;SDS011;11376;50.932;4.442;2022-12-15T16:29:37;42.77;;;19.30;;
22417;SDS011;11376;50.932;4.442;2022-12-15T16:32:04;40.57;;;20.33;;
22417;SDS011;11376;50.932;4.442;2022-12-15T16:34:30;51.13;;;20.77;;
22417;SDS011;11376;50.932;4.442;2022-12-15T16:36:56;44.80;;;19.60;;
22417;SDS011;11376;50.932;4.442;2022-12-15T16:39:23;51.20;;;21.10;;
22417;SDS011;11376;50.932;4.442;2022-12-15T16:41:52;46.37;;;20.20;;
22417;SDS011;11376;50.932;4.442;2022-12-15T16:44:18;44.03;;;20.07;;
22417;SDS011;11376;50.932;4.442;2022-12-15T16:46:44;53.40;;;22.00;;
22417;SDS011;11376;50.932;4.442;2022-12-15T16:49:10;44.97;;;21.77;;
22417;SDS011;11376;50.932;4.442;2022-12-15T16:51:37;51.73;;;21.93;;
22417;SDS011;11376;50.932;4.442;2022-12-15T16:54:04;45.50;;;20.17;;
22417;SDS011;11376;50.932;4.442;2022-12-15T16:56:31;46.07;;;21.23;;